sensor_id;sensor_type;location;lat;lon;timestamp;P1;durP1;ratioP1;P2;durP2;ratioP2
14849;SDS011;7517;48.400;11.770;2023-08-12T00:02:15;1.50;;;1.40;;
14849;SDS011;7517;48.400;11.770;2023-08-12T00:04:42;1.63;;;1.40;;
14849;SDS011;7517;48.400;11.770;2023-08-12T00:07:12;2.00;;;1.70;;
14849;SDS011;7517;48.400;11.770;2023-08-12T00:09:40;1.50;;;1.40;;
14849;SDS011;7517;48.400;11.770;2023-08-12T00:12:08;1.53;;;1.40;;
14849;SDS011;7517;48.400;11.770;2023-08-12T00:14:35;1.63;;;1.53;;
14849;SDS011;7517;48.400;11.770;2023-08-12T00:17:03;1.47;;;1.37;;
14849;SDS011;7517;48.400;11.770;2023-08-12T00:19:30;1.43;;;1.33;;
14849;SDS011;7517;48.400;11.770;2023-08-12T00:21:58;1.50;;;1.40;;
14849;SDS011;7517;48.400;11.770;2023-08-12T00:24:25;1.53;;;1.37;;
14849;SDS011;7517;48.400;11.770;2023-08-12T00:26:52;1.20;;;1.10;;
14849;SDS011;7517;48.400;11.770;2023-08-12T00:29:21;1.43;;;1.33;;
14849;SDS011;7517;48.400;11.770;2023-08-12T00:31:48;1.60;;;1.50;;
14849;SDS011;7517;48.400;11.770;2023-08-12T00:34:16;1.10;;;1.10;;
14849;SDS011;7517;48.400;11.770;2023-08-12T00:36:44;1.30;;;1.27;;
14849;SDS011;7517;48.400;11.770;2023-08-12T00:39:11;1.30;;;1.20;;
14849;SDS011;7517;48.400;11.770;2023-08-12T00:41:39;1.13;;;1.03;;
14849;SDS011;7517;48.400;11.770;2023-08-12T00:44:06;1.47;;;1.37;;
14849;SDS011;7517;48.400;11.770;2023-08-12T00:46:35;1.90;;;1.40;;
14849;SDS011;7517;48.400;11.770;2023-08-12T00:49:04;1.93;;;1.30;;
14849;SDS011;7517;48.400;11.770;2023-08-12T00:51:32;1.50;;;1.40;;
14849;SDS011;7517;48.400;11.770;2023-08-12T00:54:00;2.60;;;1.60;;
14849;SDS011;7517;48.400;11.770;2023-08-12T00:56:32;2.53;;;1.70;;
14849;SDS011;7517;48.400;11.770;2023-08-12T00:59:01;2.17;;;1.63;;
14849;SDS011;7517;48.400;11.770;2023-08-12T01:01:33;1.73;;;1.30;;
14849;SDS011;7517;48.400;11.770;2023-08-12T01:04:06;1.53;;;1.43;;
14849;SDS011;7517;48.400;11.770;2023-08-12T01:06:34;1.20;;;1.07;;
14849;SDS011;7517;48.400;11.770;2023-08-12T01:09:02;1.23;;;1.13;;
14849;SDS011;7517;48.400;11.770;2023-08-12T01:11:34;1.47;;;1.37;;
14849;SDS011;7517;48.400;11.770;2023-08-12T01:14:11;1.93;;;1.50;;
14849;SDS011;7517;48.400;11.770;2023-08-12T01:16:46;1.33;;;1.23;;
14849;SDS011;7517;48.400;11.770;2023-08-12T01:19:21;1.03;;;1.03;;
14849;SDS011;7517;48.400;11.770;2023-08-12T01:21:59;1.47;;;1.37;;
14849;SDS011;7517;48.400;11.770;2023-08-12T01:24:34;1.57;;;1.47;;
14849;SDS011;7517;48.400;11.770;2023-08-12T01:27:02;2.10;;;1.43;;
14849;SDS011;7517;48.400;11.770;2023-08-12T01:29:31;1.70;;;1.60;;
14849;SDS011;7517;48.400;11.770;2023-08-12T01:32:02;1.43;;;1.33;;
14849;SDS011;7517;48.400;11.770;2023-08-12T01:34:43;1.50;;;1.40;;
14849;SDS011;7517;48.400;11.770;2023-08-12T01:37:17;1.70;;;1.60;;
14849;SDS011;7517;48.400;11.770;2023-08-12T01:39:53;1.57;;;1.47;;
14849;SDS011;7517;48.400;11.770;2023-08-12T01:42:23;1.60;;;1.50;;
14849;SDS011;7517;48.400;11.770;2023-08-12T01:44:52;1.73;;;1.63;;
14849;SDS011;7517;48.400;11.770;2023-08-12T01:47:20;1.60;;;1.50;;
14849;SDS011;7517;48.400;11.770;2023-08-12T01:49:47;1.40;;;1.30;;
14849;SDS011;7517;48.400;11.770;2023-08-12T01:52:15;1.70;;;1.60;;
14849;SDS011;7517;48.400;11.770;2023-08-12T01:54:43;1.40;;;1.30;;
14849;SDS011;7517;48.400;11.770;2023-08-12T01:57:12;1.40;;;1.30;;
14849;SDS011;7517;48.400;11.770;2023-08-12T01:59:42;1.50;;;1.40;;
14849;SDS011;7517;48.400;11.770;2023-08-12T02:02:11;1.27;;;1.17;;
14849;SDS011;7517;48.400;11.770;2023-08-12T02:04:39;1.77;;;1.43;;
14849;SDS011;7517;48.400;11.770;2023-08-12T02:07:08;1.23;;;1.13;;
14849;SDS011;7517;48.400;11.770;2023-08-12T02:09:35;1.50;;;1.23;;
14849;SDS011;7517;48.400;11.770;2023-08-12T02:12:03;1.90;;;1.80;;
14849;SDS011;7517;48.400;11.770;2023-08-12T02:14:34;1.53;;;1.43;;
14849;SDS011;7517;48.400;11.770;2023-08-12T02:17:02;1.50;;;1.40;;
14849;SDS011;7517;48.400;11.770;2023-08-12T02:19:31;2.40;;;1.40;;
14849;SDS011;7517;48.400;11.770;2023-08-12T02:22:00;1.80;;;1.47;;
14849;SDS011;7517;48.400;11.770;2023-08-12T02:24:29;2.03;;;1.57;;
14849;SDS011;7517;48.400;11.770;2023-08-12T02:26:56;1.50;;;1.40;;
14849;SDS011;7517;48.400;11.770;2023-08-12T02:29:23;1.83;;;1.57;;
14849;SDS011;7517;48.400;11.770;2023-08-12T02:31:52;1.57;;;1.37;;
14849;SDS011;7517;48.400;11.770;2023-08-12T02:34:20;1.80;;;1.70;;
14849;SDS011;7517;48.400;11.770;2023-08-12T02:36:47;1.73;;;1.40;;
14849;SDS011;7517;48.400;11.770;2023-08-12T02:39:15;1.60;;;1.50;;
14849;SDS011;7517;48.400;11.770;2023-08-12T02:41:42;1.70;;;1.60;;
14849;SDS011;7517;48.400;11.770;2023-08-12T02:44:11;2.07;;;1.87;;
14849;SDS011;7517;48.400;11.770;2023-08-12T02:46:38;1.90;;;1.80;;
14849;SDS011;7517;48.400;11.770;2023-08-12T02:49:10;2.10;;;1.90;;
14849;SDS011;7517;48.400;11.770;2023-08-12T02:51:38;2.57;;;1.33;;
14849;SDS011;7517;48.400;11.770;2023-08-12T02:54:05;1.50;;;1.40;;
14849;SDS011;7517;48.400;11.770;2023-08-12T02:56:34;1.60;;;1.50;;
14849;SDS011;7517;48.400;11.770;2023-08-12T02:59:03;2.00;;;1.40;;
14849;SDS011;7517;48.400;11.770;2023-08-12T03:01:31;2.67;;;1.80;;
14849;SDS011;7517;48.400;11.770;2023-08-12T03:04:00;2.50;;;1.50;;
14849;SDS011;7517;48.400;11.770;2023-08-12T03:06:29;1.53;;;1.40;;
14849;SDS011;7517;48.400;11.770;2023-08-12T03:08:57;2.73;;;1.50;;
14849;SDS011;7517;48.400;11.770;2023-08-12T03:11:25;1.70;;;1.60;;
14849;SDS011;7517;48.400;11.770;2023-08-12T03:13:52;1.63;;;1.53;;
14849;SDS011;7517;48.400;11.770;2023-08-12T03:16:20;2.40;;;2.10;;
14849;SDS011;7517;48.400;11.770;2023-08-12T03:18:47;2.87;;;1.80;;
14849;SDS011;7517;48.400;11.770;2023-08-12T03:21:15;1.80;;;1.70;;
14849;SDS011;7517;48.400;11.770;2023-08-12T03:23:44;1.93;;;1.73;;
14849;SDS011;7517;48.400;11.770;2023-08-12T03:26:11;2.37;;;1.77;;
14849;SDS011;7517;48.400;11.770;2023-08-12T03:28:39;1.90;;;1.70;;
14849;SDS011;7517;48.400;11.770;2023-08-12T03:31:06;2.17;;;1.70;;
14849;SDS011;7517;48.400;11.770;2023-08-12T03:33:34;2.50;;;1.60;;
14849;SDS011;7517;48.400;11.770;2023-08-12T03:36:02;2.03;;;1.90;;
14849;SDS011;7517;48.400;11.770;2023-08-12T03:38:32;1.83;;;1.73;;
14849;SDS011;7517;48.400;11.770;2023-08-12T03:41:03;1.80;;;1.70;;
14849;SDS011;7517;48.400;11.770;2023-08-12T03:43:31;1.90;;;1.80;;
14849;SDS011;7517;48.400;11.770;2023-08-12T03:45:59;1.93;;;1.63;;
14849;SDS011;7517;48.400;11.770;2023-08-12T03:48:27;1.90;;;1.80;;
14849;SDS011;7517;48.400;11.770;2023-08-12T03:50:54;2.10;;;2.00;;
14849;SDS011;7517;48.400;11.770;2023-08-12T03:53:22;3.10;;;2.37;;
14849;SDS011;7517;48.400;11.770;2023-08-12T03:55:52;2.23;;;2.13;;
14849;SDS011;7517;48.400;11.770;2023-08-12T03:58:22;2.27;;;2.07;;
14849;SDS011;7517;48.400;11.770;2023-08-12T04:00:51;2.63;;;1.93;;
14849;SDS011;7517;48.400;11.770;2023-08-12T04:03:18;1.83;;;1.73;;
14849;SDS011;7517;48.400;11.770;2023-08-12T04:05:49;2.10;;;1.90;;
14849;SDS011;7517;48.400;11.770;2023-08-12T04:08:18;1.80;;;1.70;;
14849;SDS011;7517;48.400;11.770;2023-08-12T04:10:46;2.03;;;1.83;;
14849;SDS011;7517;48.400;11.770;2023-08-12T04:13:14;1.73;;;1.63;;
14849;SDS011;7517;48.400;11.770;2023-08-12T04:15:47;1.97;;;1.87;;
14849;SDS011;7517;48.400;11.770;2023-08-12T04:18:16;2.00;;;1.90;;
14849;SDS011;7517;48.400;11.770;2023-08-12T04:20:44;2.10;;;1.70;;
14849;SDS011;7517;48.400;11.770;2023-08-12T04:23:13;1.93;;;1.83;;
14849;SDS011;7517;48.400;11.770;2023-08-12T04:25:42;2.20;;;2.00;;
14849;SDS011;7517;48.400;11.770;2023-08-12T04:28:11;2.00;;;1.87;;
14849;SDS011;7517;48.400;11.770;2023-08-12T04:30:40;2.30;;;2.10;;
14849;SDS011;7517;48.400;11.770;2023-08-12T04:33:11;2.27;;;2.10;;
14849;SDS011;7517;48.400;11.770;2023-08-12T04:35:39;2.07;;;1.97;;
14849;SDS011;7517;48.400;11.770;2023-08-12T04:38:07;3.17;;;2.07;;
14849;SDS011;7517;48.400;11.770;2023-08-12T04:40:37;3.40;;;2.17;;
14849;SDS011;7517;48.400;11.770;2023-08-12T04:43:05;2.73;;;2.20;;
14849;SDS011;7517;48.400;11.770;2023-08-12T04:45:34;2.43;;;2.23;;
14849;SDS011;7517;48.400;11.770;2023-08-12T04:48:03;2.23;;;2.13;;
14849;SDS011;7517;48.400;11.770;2023-08-12T04:50:33;3.10;;;2.50;;
14849;SDS011;7517;48.400;11.770;2023-08-12T04:53:00;2.63;;;2.20;;
14849;SDS011;7517;48.400;11.770;2023-08-12T04:55:28;2.07;;;1.97;;
14849;SDS011;7517;48.400;11.770;2023-08-12T04:57:56;2.13;;;2.03;;
14849;SDS011;7517;48.400;11.770;2023-08-12T05:00:24;2.73;;;2.53;;
14849;SDS011;7517;48.400;11.770;2023-08-12T05:02:53;2.30;;;2.20;;
14849;SDS011;7517;48.400;11.770;2023-08-12T05:05:22;2.87;;;2.50;;
14849;SDS011;7517;48.400;11.770;2023-08-12T05:07:49;2.53;;;2.33;;
14849;SDS011;7517;48.400;11.770;2023-08-12T05:10:17;2.60;;;2.40;;
14849;SDS011;7517;48.400;11.770;2023-08-12T05:12:45;2.70;;;2.50;;
14849;SDS011;7517;48.400;11.770;2023-08-12T05:15:16;2.57;;;2.37;;
14849;SDS011;7517;48.400;11.770;2023-08-12T05:17:44;2.30;;;2.20;;
14849;SDS011;7517;48.400;11.770;2023-08-12T05:20:12;2.40;;;2.30;;
14849;SDS011;7517;48.400;11.770;2023-08-12T05:22:42;3.00;;;2.80;;
14849;SDS011;7517;48.400;11.770;2023-08-12T05:25:09;2.50;;;2.30;;
14849;SDS011;7517;48.400;11.770;2023-08-12T05:27:37;2.60;;;2.40;;
14849;SDS011;7517;48.400;11.770;2023-08-12T05:30:05;3.20;;;2.90;;
14849;SDS011;7517;48.400;11.770;2023-08-12T05:32:33;2.87;;;2.67;;
14849;SDS011;7517;48.400;11.770;2023-08-12T05:35:01;2.83;;;2.67;;
14849;SDS011;7517;48.400;11.770;2023-08-12T05:37:29;4.20;;;3.20;;
14849;SDS011;7517;48.400;11.770;2023-08-12T05:39:58;3.03;;;2.70;;
14849;SDS011;7517;48.400;11.770;2023-08-12T05:42:26;3.07;;;2.63;;
14849;SDS011;7517;48.400;11.770;2023-08-12T05:44:53;2.80;;;2.60;;
14849;SDS011;7517;48.400;11.770;2023-08-12T05:47:21;3.30;;;3.00;;
14849;SDS011;7517;48.400;11.770;2023-08-12T05:49:49;2.80;;;2.57;;
14849;SDS011;7517;48.400;11.770;2023-08-12T05:52:17;3.93;;;3.07;;
14849;SDS011;7517;48.400;11.770;2023-08-12T05:54:45;4.87;;;2.70;;
14849;SDS011;7517;48.400;11.770;2023-08-12T05:57:14;2.97;;;2.77;;
14849;SDS011;7517;48.400;11.770;2023-08-12T05:59:41;3.07;;;2.70;;
14849;SDS011;7517;48.400;11.770;2023-08-12T06:02:08;3.00;;;2.80;;
14849;SDS011;7517;48.400;11.770;2023-08-12T06:04:36;2.97;;;2.77;;
14849;SDS011;7517;48.400;11.770;2023-08-12T06:07:04;3.00;;;2.80;;
14849;SDS011;7517;48.400;11.770;2023-08-12T06:09:32;3.20;;;3.00;;
14849;SDS011;7517;48.400;11.770;2023-08-12T06:11:59;3.60;;;3.30;;
14849;SDS011;7517;48.400;11.770;2023-08-12T06:14:28;3.33;;;3.00;;
14849;SDS011;7517;48.400;11.770;2023-08-12T06:16:55;4.00;;;2.53;;
14849;SDS011;7517;48.400;11.770;2023-08-12T06:19:23;3.03;;;2.80;;
14849;SDS011;7517;48.400;11.770;2023-08-12T06:21:56;3.00;;;2.60;;
14849;SDS011;7517;48.400;11.770;2023-08-12T06:24:23;3.03;;;2.83;;
14849;SDS011;7517;48.400;11.770;2023-08-12T06:26:50;2.97;;;2.77;;
14849;SDS011;7517;48.400;11.770;2023-08-12T06:29:18;3.73;;;2.90;;
14849;SDS011;7517;48.400;11.770;2023-08-12T06:31:51;3.17;;;2.87;;
14849;SDS011;7517;48.400;11.770;2023-08-12T06:34:20;2.93;;;2.63;;
14849;SDS011;7517;48.400;11.770;2023-08-12T06:36:49;2.90;;;2.70;;
14849;SDS011;7517;48.400;11.770;2023-08-12T06:39:17;2.67;;;2.47;;
14849;SDS011;7517;48.400;11.770;2023-08-12T06:41:44;2.83;;;2.63;;
14849;SDS011;7517;48.400;11.770;2023-08-12T06:44:12;2.87;;;2.67;;
14849;SDS011;7517;48.400;11.770;2023-08-12T06:46:39;4.13;;;2.50;;
14849;SDS011;7517;48.400;11.770;2023-08-12T06:49:08;3.10;;;2.70;;
14849;SDS011;7517;48.400;11.770;2023-08-12T06:51:36;3.00;;;2.80;;
14849;SDS011;7517;48.400;11.770;2023-08-12T06:54:03;3.33;;;3.10;;
14849;SDS011;7517;48.400;11.770;2023-08-12T06:56:31;5.33;;;2.80;;
14849;SDS011;7517;48.400;11.770;2023-08-12T06:58:59;2.80;;;2.60;;
14849;SDS011;7517;48.400;11.770;2023-08-12T07:01:26;3.80;;;3.50;;
14849;SDS011;7517;48.400;11.770;2023-08-12T07:03:53;3.27;;;2.97;;
14849;SDS011;7517;48.400;11.770;2023-08-12T07:06:22;3.60;;;3.37;;
14849;SDS011;7517;48.400;11.770;2023-08-12T07:08:50;3.57;;;3.37;;
14849;SDS011;7517;48.400;11.770;2023-08-12T07:11:17;3.17;;;2.57;;
14849;SDS011;7517;48.400;11.770;2023-08-12T07:13:45;3.50;;;2.97;;
14849;SDS011;7517;48.400;11.770;2023-08-12T07:16:12;3.20;;;3.00;;
14849;SDS011;7517;48.400;11.770;2023-08-12T07:18:40;3.20;;;2.90;;
14849;SDS011;7517;48.400;11.770;2023-08-12T07:21:08;2.97;;;2.77;;
14849;SDS011;7517;48.400;11.770;2023-08-12T07:23:37;2.60;;;2.40;;
14849;SDS011;7517;48.400;11.770;2023-08-12T07:26:04;2.50;;;2.40;;
14849;SDS011;7517;48.400;11.770;2023-08-12T07:28:31;3.07;;;2.87;;
14849;SDS011;7517;48.400;11.770;2023-08-12T07:31:00;2.87;;;2.67;;
14849;SDS011;7517;48.400;11.770;2023-08-12T07:33:27;2.73;;;2.53;;
14849;SDS011;7517;48.400;11.770;2023-08-12T07:35:55;2.90;;;2.67;;
14849;SDS011;7517;48.400;11.770;2023-08-12T07:38:22;3.40;;;2.53;;
14849;SDS011;7517;48.400;11.770;2023-08-12T07:40:51;2.90;;;2.70;;
14849;SDS011;7517;48.400;11.770;2023-08-12T07:43:19;2.93;;;2.70;;
14849;SDS011;7517;48.400;11.770;2023-08-12T07:45:50;2.87;;;2.57;;
14849;SDS011;7517;48.400;11.770;2023-08-12T07:48:18;3.57;;;2.30;;
14849;SDS011;7517;48.400;11.770;2023-08-12T07:50:45;3.50;;;2.10;;
14849;SDS011;7517;48.400;11.770;2023-08-12T07:53:14;2.20;;;2.10;;
14849;SDS011;7517;48.400;11.770;2023-08-12T07:55:41;2.70;;;2.50;;
14849;SDS011;7517;48.400;11.770;2023-08-12T07:58:10;2.77;;;2.57;;
14849;SDS011;7517;48.400;11.770;2023-08-12T08:00:38;2.77;;;2.57;;
14849;SDS011;7517;48.400;11.770;2023-08-12T08:03:06;2.47;;;2.37;;
14849;SDS011;7517;48.400;11.770;2023-08-12T08:05:33;3.17;;;2.67;;
14849;SDS011;7517;48.400;11.770;2023-08-12T08:08:01;2.43;;;2.23;;
14849;SDS011;7517;48.400;11.770;2023-08-12T08:10:28;2.53;;;2.43;;
14849;SDS011;7517;48.400;11.770;2023-08-12T08:12:56;2.33;;;2.23;;
14849;SDS011;7517;48.400;11.770;2023-08-12T08:15:26;2.27;;;2.10;;
14849;SDS011;7517;48.400;11.770;2023-08-12T08:17:54;2.47;;;2.27;;
14849;SDS011;7517;48.400;11.770;2023-08-12T08:20:21;2.17;;;2.07;;
14849;SDS011;7517;48.400;11.770;2023-08-12T08:22:48;2.20;;;2.10;;
14849;SDS011;7517;48.400;11.770;2023-08-12T08:25:16;2.22;;;2.13;;
14849;SDS011;7517;48.400;11.770;2023-08-12T08:27:44;2.10;;;2.00;;
14849;SDS011;7517;48.400;11.770;2023-08-12T08:30:11;2.33;;;2.22;;
14849;SDS011;7517;48.400;11.770;2023-08-12T08:32:40;2.47;;;2.27;;
14849;SDS011;7517;48.400;11.770;2023-08-12T08:35:07;3.63;;;2.17;;
14849;SDS011;7517;48.400;11.770;2023-08-12T08:37:34;1.90;;;1.80;;
14849;SDS011;7517;48.400;11.770;2023-08-12T08:40:02;2.70;;;2.40;;
14849;SDS011;7517;48.400;11.770;2023-08-12T08:42:30;2.33;;;2.03;;
14849;SDS011;7517;48.400;11.770;2023-08-12T08:44:58;2.35;;;2.15;;
14849;SDS011;7517;48.400;11.770;2023-08-12T08:47:28;2.20;;;2.00;;
14849;SDS011;7517;48.400;11.770;2023-08-12T08:49:58;2.75;;;2.55;;
14849;SDS011;7517;48.400;11.770;2023-08-12T08:52:27;1.85;;;1.75;;
14849;SDS011;7517;48.400;11.770;2023-08-12T08:54:58;2.00;;;1.90;;
14849;SDS011;7517;48.400;11.770;2023-08-12T08:57:27;1.95;;;1.85;;
14849;SDS011;7517;48.400;11.770;2023-08-12T08:59:55;1.77;;;1.67;;
14849;SDS011;7517;48.400;11.770;2023-08-12T09:02:24;1.92;;;1.83;;
14849;SDS011;7517;48.400;11.770;2023-08-12T09:04:52;1.95;;;1.85;;
14849;SDS011;7517;48.400;11.770;2023-08-12T09:07:22;2.05;;;1.95;;
14849;SDS011;7517;48.400;11.770;2023-08-12T09:09:51;2.13;;;2.03;;
14849;SDS011;7517;48.400;11.770;2023-08-12T09:12:23;2.38;;;1.85;;
14849;SDS011;7517;48.400;11.770;2023-08-12T09:14:51;1.80;;;1.70;;
14849;SDS011;7517;48.400;11.770;2023-08-12T09:17:18;2.15;;;1.80;;
14849;SDS011;7517;48.400;11.770;2023-08-12T09:19:47;1.73;;;1.63;;
14849;SDS011;7517;48.400;11.770;2023-08-12T09:22:15;1.42;;;1.33;;
14849;SDS011;7517;48.400;11.770;2023-08-12T09:24:46;1.98;;;1.88;;
14849;SDS011;7517;48.400;11.770;2023-08-12T09:27:16;1.88;;;1.77;;
14849;SDS011;7517;48.400;11.770;2023-08-12T09:29:44;2.03;;;1.92;;
14849;SDS011;7517;48.400;11.770;2023-08-12T09:32:12;2.08;;;1.98;;
14849;SDS011;7517;48.400;11.770;2023-08-12T09:34:46;2.03;;;1.92;;
14849;SDS011;7517;48.400;11.770;2023-08-12T09:37:13;2.08;;;1.73;;
14849;SDS011;7517;48.400;11.770;2023-08-12T09:39:42;1.83;;;1.73;;
14849;SDS011;7517;48.400;11.770;2023-08-12T09:42:12;1.92;;;1.83;;
14849;SDS011;7517;48.400;11.770;2023-08-12T09:44:40;2.25;;;1.80;;
14849;SDS011;7517;48.400;11.770;2023-08-12T09:47:10;1.70;;;1.60;;
14849;SDS011;7517;48.400;11.770;2023-08-12T09:49:38;1.70;;;1.60;;
14849;SDS011;7517;48.400;11.770;2023-08-12T09:52:06;1.45;;;1.40;;
14849;SDS011;7517;48.400;11.770;2023-08-12T09:54:34;2.15;;;1.95;;
14849;SDS011;7517;48.400;11.770;2023-08-12T09:57:03;2.00;;;1.90;;
14849;SDS011;7517;48.400;11.770;2023-08-12T09:59:34;2.45;;;2.00;;
14849;SDS011;7517;48.400;11.770;2023-08-12T10:02:03;2.28;;;1.60;;
14849;SDS011;7517;48.400;11.770;2023-08-12T10:04:33;1.55;;;1.45;;
14849;SDS011;7517;48.400;11.770;2023-08-12T10:07:06;1.70;;;1.60;;
14849;SDS011;7517;48.400;11.770;2023-08-12T10:09:37;1.77;;;1.67;;
14849;SDS011;7517;48.400;11.770;2023-08-12T10:12:08;1.75;;;1.65;;
14849;SDS011;7517;48.400;11.770;2023-08-12T10:14:39;1.52;;;1.42;;
14849;SDS011;7517;48.400;11.770;2023-08-12T10:17:06;2.25;;;1.80;;
14849;SDS011;7517;48.400;11.770;2023-08-12T10:19:36;1.40;;;1.30;;
14849;SDS011;7517;48.400;11.770;2023-08-12T10:22:10;1.70;;;1.60;;
14849;SDS011;7517;48.400;11.770;2023-08-12T10:24:39;1.92;;;1.83;;
14849;SDS011;7517;48.400;11.770;2023-08-12T10:27:11;1.60;;;1.50;;
14849;SDS011;7517;48.400;11.770;2023-08-12T10:29:43;1.60;;;1.50;;
14849;SDS011;7517;48.400;11.770;2023-08-12T10:32:12;1.80;;;1.70;;
14849;SDS011;7517;48.400;11.770;2023-08-12T10:34:40;1.70;;;1.60;;
14849;SDS011;7517;48.400;11.770;2023-08-12T10:37:09;1.50;;;1.40;;
14849;SDS011;7517;48.400;11.770;2023-08-12T10:39:37;1.63;;;1.52;;
14849;SDS011;7517;48.400;11.770;2023-08-12T10:42:06;1.77;;;1.65;;
14849;SDS011;7517;48.400;11.770;2023-08-12T10:44:38;1.48;;;1.35;;
14849;SDS011;7517;48.400;11.770;2023-08-12T10:47:16;1.85;;;1.40;;
14849;SDS011;7517;48.400;11.770;2023-08-12T10:49:44;1.67;;;1.58;;
14849;SDS011;7517;48.400;11.770;2023-08-12T10:52:27;2.28;;;1.45;;
14849;SDS011;7517;48.400;11.770;2023-08-12T10:57:43;2.75;;;1.85;;
14849;SDS011;7517;48.400;11.770;2023-08-12T11:00:13;1.70;;;1.60;;
14849;SDS011;7517;48.400;11.770;2023-08-12T11:02:48;1.70;;;1.60;;
14849;SDS011;7517;48.400;11.770;2023-08-12T11:05:17;2.38;;;1.55;;
14849;SDS011;7517;48.400;11.770;2023-08-12T11:07:46;4.25;;;1.98;;
14849;SDS011;7517;48.400;11.770;2023-08-12T11:10:16;1.70;;;1.60;;
14849;SDS011;7517;48.400;11.770;2023-08-12T11:12:53;1.45;;;1.35;;
14849;SDS011;7517;48.400;11.770;2023-08-12T11:15:31;4.88;;;1.60;;
14849;SDS011;7517;48.400;11.770;2023-08-12T11:18:05;1.90;;;1.80;;
14849;SDS011;7517;48.400;11.770;2023-08-12T11:20:36;1.70;;;1.60;;
14849;SDS011;7517;48.400;11.770;2023-08-12T11:23:04;1.95;;;1.80;;
14849;SDS011;7517;48.400;11.770;2023-08-12T11:25:33;1.50;;;1.40;;
14849;SDS011;7517;48.400;11.770;2023-08-12T11:28:03;1.50;;;1.40;;
14849;SDS011;7517;48.400;11.770;2023-08-12T11:30:32;1.65;;;1.55;;
14849;SDS011;7517;48.400;11.770;2023-08-12T11:33:01;2.00;;;1.90;;
14849;SDS011;7517;48.400;11.770;2023-08-12T11:35:31;1.70;;;1.60;;
14849;SDS011;7517;48.400;11.770;2023-08-12T11:37:59;1.50;;;1.40;;
14849;SDS011;7517;48.400;11.770;2023-08-12T11:40:26;1.65;;;1.55;;
14849;SDS011;7517;48.400;11.770;2023-08-12T11:42:56;1.65;;;1.40;;
14849;SDS011;7517;48.400;11.770;2023-08-12T11:45:26;1.60;;;1.50;;
14849;SDS011;7517;48.400;11.770;2023-08-12T11:47:54;1.70;;;1.60;;
14849;SDS011;7517;48.400;11.770;2023-08-12T11:50:22;2.10;;;1.73;;
14849;SDS011;7517;48.400;11.770;2023-08-12T11:52:53;1.92;;;1.70;;
14849;SDS011;7517;48.400;11.770;2023-08-12T11:55:23;2.13;;;1.50;;
14849;SDS011;7517;48.400;11.770;2023-08-12T11:57:52;1.77;;;1.67;;
14849;SDS011;7517;48.400;11.770;2023-08-12T12:00:19;1.52;;;1.42;;
14849;SDS011;7517;48.400;11.770;2023-08-12T12:02:49;2.00;;;1.58;;
14849;SDS011;7517;48.400;11.770;2023-08-12T12:05:18;1.70;;;1.60;;
14849;SDS011;7517;48.400;11.770;2023-08-12T12:07:48;1.75;;;1.65;;
14849;SDS011;7517;48.400;11.770;2023-08-12T12:10:19;1.52;;;1.50;;
14849;SDS011;7517;48.400;11.770;2023-08-12T12:12:52;1.42;;;1.40;;
14849;SDS011;7517;48.400;11.770;2023-08-12T12:15:21;1.70;;;1.48;;
14849;SDS011;7517;48.400;11.770;2023-08-12T12:17:49;1.75;;;1.65;;
14849;SDS011;7517;48.400;11.770;2023-08-12T12:20:17;1.88;;;1.70;;
14849;SDS011;7517;48.400;11.770;2023-08-12T12:22:46;1.88;;;1.77;;
14849;SDS011;7517;48.400;11.770;2023-08-12T12:25:15;1.40;;;1.30;;
14849;SDS011;7517;48.400;11.770;2023-08-12T12:27:45;1.80;;;1.70;;
14849;SDS011;7517;48.400;11.770;2023-08-12T12:30:13;1.63;;;1.52;;
14849;SDS011;7517;48.400;11.770;2023-08-12T12:32:44;1.65;;;1.55;;
14849;SDS011;7517;48.400;11.770;2023-08-12T12:35:11;1.67;;;1.45;;
14849;SDS011;7517;48.400;11.770;2023-08-12T12:37:38;1.67;;;1.58;;
14849;SDS011;7517;48.400;11.770;2023-08-12T12:40:08;1.60;;;1.50;;
14849;SDS011;7517;48.400;11.770;2023-08-12T12:42:38;1.90;;;1.80;;
14849;SDS011;7517;48.400;11.770;2023-08-12T12:45:06;1.60;;;1.50;;
14849;SDS011;7517;48.400;11.770;2023-08-12T12:47:35;4.10;;;1.70;;
14849;SDS011;7517;48.400;11.770;2023-08-12T12:50:03;2.00;;;1.80;;
14849;SDS011;7517;48.400;11.770;2023-08-12T12:52:33;1.60;;;1.50;;
14849;SDS011;7517;48.400;11.770;2023-08-12T12:55:00;1.75;;;1.55;;
14849;SDS011;7517;48.400;11.770;2023-08-12T12:57:29;1.48;;;1.38;;
14849;SDS011;7517;48.400;11.770;2023-08-12T12:59:58;1.55;;;1.45;;
14849;SDS011;7517;48.400;11.770;2023-08-12T13:02:25;2.28;;;1.40;;
14849;SDS011;7517;48.400;11.770;2023-08-12T13:04:53;1.83;;;1.33;;
14849;SDS011;7517;48.400;11.770;2023-08-12T13:07:21;1.70;;;1.60;;
14849;SDS011;7517;48.400;11.770;2023-08-12T13:09:48;1.58;;;1.48;;
14849;SDS011;7517;48.400;11.770;2023-08-12T13:12:15;1.55;;;1.38;;
14849;SDS011;7517;48.400;11.770;2023-08-12T13:14:42;1.58;;;1.48;;
14849;SDS011;7517;48.400;11.770;2023-08-12T13:17:11;1.77;;;1.67;;
14849;SDS011;7517;48.400;11.770;2023-08-12T13:19:38;2.05;;;1.50;;
14849;SDS011;7517;48.400;11.770;2023-08-12T13:22:05;1.48;;;1.38;;
14849;SDS011;7517;48.400;11.770;2023-08-12T13:24:33;1.75;;;1.23;;
14849;SDS011;7517;48.400;11.770;2023-08-12T13:27:00;2.13;;;1.52;;
14849;SDS011;7517;48.400;11.770;2023-08-12T13:29:28;1.40;;;1.30;;
14849;SDS011;7517;48.400;11.770;2023-08-12T13:31:56;1.58;;;1.48;;
14849;SDS011;7517;48.400;11.770;2023-08-12T13:34:25;1.33;;;1.23;;
14849;SDS011;7517;48.400;11.770;2023-08-12T13:36:53;1.40;;;1.30;;
14849;SDS011;7517;48.400;11.770;2023-08-12T13:39:20;2.00;;;1.40;;
14849;SDS011;7517;48.400;11.770;2023-08-12T13:41:48;1.45;;;1.30;;
14849;SDS011;7517;48.400;11.770;2023-08-12T13:44:16;1.02;;;1.02;;
14849;SDS011;7517;48.400;11.770;2023-08-12T13:46:43;1.88;;;1.25;;
14849;SDS011;7517;48.400;11.770;2023-08-12T13:49:11;1.42;;;1.30;;
14849;SDS011;7517;48.400;11.770;2023-08-12T13:51:39;1.35;;;1.25;;
14849;SDS011;7517;48.400;11.770;2023-08-12T13:54:07;1.48;;;1.38;;
14849;SDS011;7517;48.400;11.770;2023-08-12T13:56:34;1.48;;;1.40;;
14849;SDS011;7517;48.400;11.770;2023-08-12T13:59:02;1.45;;;1.38;;
14849;SDS011;7517;48.400;11.770;2023-08-12T14:01:30;2.50;;;1.50;;
14849;SDS011;7517;48.400;11.770;2023-08-12T14:03:57;1.83;;;1.65;;
14849;SDS011;7517;48.400;11.770;2023-08-12T14:06:24;1.50;;;1.38;;
14849;SDS011;7517;48.400;11.770;2023-08-12T14:08:55;1.35;;;1.25;;
14849;SDS011;7517;48.400;11.770;2023-08-12T14:11:22;1.33;;;1.23;;
14849;SDS011;7517;48.400;11.770;2023-08-12T14:13:50;1.08;;;1.08;;
14849;SDS011;7517;48.400;11.770;2023-08-12T14:16:17;1.60;;;1.50;;
14849;SDS011;7517;48.400;11.770;2023-08-12T14:18:45;1.73;;;1.60;;
14849;SDS011;7517;48.400;11.770;2023-08-12T14:21:13;1.40;;;1.27;;
14849;SDS011;7517;48.400;11.770;2023-08-12T14:23:40;2.08;;;1.45;;
14849;SDS011;7517;48.400;11.770;2023-08-12T14:26:09;1.25;;;1.15;;
14849;SDS011;7517;48.400;11.770;2023-08-12T14:28:36;1.25;;;1.23;;
14849;SDS011;7517;48.400;11.770;2023-08-12T14:31:03;1.40;;;1.30;;
14849;SDS011;7517;48.400;11.770;2023-08-12T14:33:31;1.42;;;1.33;;
14849;SDS011;7517;48.400;11.770;2023-08-12T14:35:58;1.30;;;1.20;;
14849;SDS011;7517;48.400;11.770;2023-08-12T14:38:26;2.75;;;1.20;;
14849;SDS011;7517;48.400;11.770;2023-08-12T14:40:53;1.80;;;1.20;;
14849;SDS011;7517;48.400;11.770;2023-08-12T14:43:22;1.40;;;1.30;;
14849;SDS011;7517;48.400;11.770;2023-08-12T14:45:50;0.95;;;0.93;;
14849;SDS011;7517;48.400;11.770;2023-08-12T14:48:18;1.33;;;1.20;;
14849;SDS011;7517;48.400;11.770;2023-08-12T14:50:46;1.10;;;1.10;;
14849;SDS011;7517;48.400;11.770;2023-08-12T14:53:14;1.17;;;1.00;;
14849;SDS011;7517;48.400;11.770;2023-08-12T14:55:41;2.17;;;1.10;;
14849;SDS011;7517;48.400;11.770;2023-08-12T14:58:08;1.08;;;1.05;;
14849;SDS011;7517;48.400;11.770;2023-08-12T15:00:37;3.08;;;1.58;;